Time;durP1;ratioP1;P1;durP2;ratioP2;P2;SDS_P1;SDS_P2;PMS_P1;PMS_P2;Temp;Humidity;BMP_temperature;BMP_pressure;BME280_temperature;BME280_humidity;BME280_pressure;Samples;Min_cycle;Max_cycle;Signal;HPM_P1;HPM_P2
2022/04/18 00:00:07;;;;;;;1.63;1.53;;;18.80;43.60;;;;;;5060766;28;20605;-58
2022/04/18 00:02:34;;;;;;;1.40;1.30;;;18.80;43.60;;;;;;5057573;28;20658;-58
2022/04/18 00:04:59;;;;;;;1.67;1.57;;;18.80;43.60;;;;;;5056163;28;20465;-58
2022/04/18 00:07:25;;;;;;;1.60;1.50;;;18.80;43.60;;;;;;5060957;28;20522;-59
2022/04/18 00:09:52;;;;;;;1.40;1.30;;;18.80;43.60;;;;;;5057580;28;20237;-58
2022/04/18 00:12:18;;;;;;;1.50;1.40;;;18.80;43.60;;;;;;5060236;28;20284;-58
2022/04/18 00:14:44;;;;;;;1.60;1.50;;;18.80;43.60;;;;;;5061314;28;20426;-58
2022/04/18 00:17:10;;;;;;;1.80;1.70;;;18.80;43.60;;;;;;5053957;28;20823;-57
2022/04/18 00:19:36;;;;;;;1.60;1.50;;;18.80;43.60;;;;;;5056774;28;20996;-58
2022/04/18 00:22:03;;;;;;;1.60;1.50;;;18.80;43.60;;;;;;5060290;28;20217;-58
2022/04/18 00:24:28;;;;;;;1.60;1.50;;;18.80;43.60;;;;;;5058173;28;20568;-58
2022/04/18 00:26:54;;;;;;;1.73;1.63;;;18.80;43.60;;;;;;5059939;28;20455;-58
2022/04/18 00:29:19;;;;;;;1.53;1.43;;;18.80;43.60;;;;;;5059664;28;20215;-59
2022/04/18 00:31:45;;;;;;;1.40;1.30;;;18.70;43.60;;;;;;5056709;28;20229;-57
2022/04/18 00:34:11;;;;;;;1.80;1.70;;;18.80;43.60;;;;;;5061141;28;20674;-58
2022/04/18 00:36:37;;;;;;;1.60;1.50;;;18.80;43.60;;;;;;5060568;28;20233;-58
2022/04/18 00:39:02;;;;;;;1.37;1.27;;;18.80;43.60;;;;;;5058739;28;20422;-58
2022/04/18 00:41:28;;;;;;;1.50;1.40;;;18.80;43.60;;;;;;5058790;28;20275;-58
2022/04/18 00:43:53;;;;;;;1.50;1.40;;;18.80;43.60;;;;;;5060357;28;20594;-58
2022/04/18 00:46:20;;;;;;;1.50;1.40;;;18.80;43.60;;;;;;5053472;28;20710;-60
2022/04/18 00:48:47;;;;;;;1.57;1.47;;;18.80;43.60;;;;;;5058614;28;20253;-58
2022/04/18 00:51:15;;;;;;;1.57;1.47;;;18.80;43.60;;;;;;5057762;28;20474;-58
2022/04/18 00:53:42;;;;;;;1.60;1.50;;;18.80;43.60;;;;;;5056813;28;20436;-58
2022/04/18 00:56:11;;;;;;;1.70;1.60;;;18.70;43.70;;;;;;5059283;28;20923;-58
2022/04/18 00:58:37;;;;;;;2.00;1.90;;;18.70;43.60;;;;;;5063741;28;20450;-58
2022/04/18 01:01:03;;;;;;;1.50;1.40;;;18.70;43.60;;;;;;5059715;28;20950;-58
2022/04/18 01:03:30;;;;;;;1.70;1.60;;;18.80;43.60;;;;;;5061568;28;20244;-58
2022/04/18 01:06:01;;;;;;;1.77;1.67;;;18.80;43.60;;;;;;5059836;28;20421;-58
2022/04/18 01:08:32;;;;;;;1.70;1.60;;;18.70;43.60;;;;;;5056137;28;20466;-57
2022/04/18 01:10:59;;;;;;;1.50;1.40;;;18.70;43.60;;;;;;5066241;28;20458;-58
2022/04/18 01:13:26;;;;;;;1.50;1.40;;;18.70;43.60;;;;;;5063921;28;20512;-58
2022/04/18 01:15:53;;;;;;;1.47;1.37;;;18.70;43.60;;;;;;5061625;28;20483;-58
2022/04/18 01:18:18;;;;;;;1.70;1.60;;;18.70;43.60;;;;;;5061130;28;20425;-58
2022/04/18 01:20:44;;;;;;;1.43;1.33;;;18.70;43.50;;;;;;5064138;28;20462;-58
2022/04/18 01:23:10;;;;;;;1.80;1.70;;;18.70;43.60;;;;;;5061725;28;20219;-58
2022/04/18 01:31:04;;;;;;;1.70;1.60;;;18.70;43.60;;;;;;5059881;28;21043;-58
2022/04/18 01:33:30;;;;;;;1.40;1.30;;;18.70;43.60;;;;;;5063945;28;20452;-58
2022/04/18 01:35:56;;;;;;;1.60;1.50;;;18.70;43.60;;;;;;5065722;28;20753;-58
2022/04/18 01:38:22;;;;;;;1.63;1.53;;;18.70;43.60;;;;;;5063374;28;20258;-58
2022/04/18 01:40:47;;;;;;;1.60;1.50;;;18.70;43.60;;;;;;5060699;28;20234;-58
2022/04/18 01:43:13;;;;;;;1.90;1.80;;;18.70;43.60;;;;;;5061567;28;20218;-58
2022/04/18 01:45:38;;;;;;;1.60;1.50;;;18.80;43.60;;;;;;5060757;28;20300;-58
2022/04/18 01:48:05;;;;;;;1.60;1.50;;;18.70;43.60;;;;;;5057578;28;20218;-57
2022/04/18 01:50:30;;;;;;;1.70;1.60;;;18.70;43.60;;;;;;5065674;28;20267;-58
2022/04/18 01:52:56;;;;;;;1.73;1.63;;;18.70;43.60;;;;;;5063369;28;20886;-58
2022/04/18 01:55:21;;;;;;;1.87;1.77;;;18.70;43.60;;;;;;5061670;28;20222;-58
2022/04/18 01:57:47;;;;;;;1.80;1.70;;;18.70;43.60;;;;;;5064833;28;20706;-58
2022/04/18 02:00:13;;;;;;;1.70;1.60;;;18.70;43.60;;;;;;5058301;28;20234;-58
2022/04/18 02:02:38;;;;;;;1.57;1.47;;;18.80;43.60;;;;;;5058552;28;20372;-58
2022/04/18 02:05:08;;;;;;;1.60;1.50;;;18.70;43.60;;;;;;5063386;28;20682;-58
2022/04/18 02:07:35;;;;;;;1.70;1.60;;;18.70;43.60;;;;;;5060007;28;20707;-58
2022/04/18 02:10:02;;;;;;;1.50;1.40;;;18.70;43.60;;;;;;5061777;28;20816;-58
2022/04/18 02:12:28;;;;;;;1.60;1.50;;;18.70;43.60;;;;;;5062813;28;20955;-58
2022/04/18 02:14:53;;;;;;;1.70;1.60;;;18.70;43.60;;;;;;5065105;28;20454;-58
2022/04/18 02:17:19;;;;;;;1.60;1.50;;;18.70;43.60;;;;;;5059268;28;20335;-59
2022/04/18 02:19:45;;;;;;;1.60;1.50;;;18.70;43.50;;;;;;5061694;28;20226;-58
2022/04/18 02:22:12;;;;;;;1.50;1.40;;;18.70;43.60;;;;;;5057877;28;20648;-58
2022/04/18 02:24:38;;;;;;;1.50;1.40;;;18.70;44.30;;;;;;5056869;28;20308;-59
2022/04/18 02:27:06;;;;;;;1.47;1.37;;;18.70;43.60;;;;;;5061965;28;20500;-58
2022/04/18 02:29:32;;;;;;;1.70;1.60;;;18.70;43.50;;;;;;5058084;28;20226;-58
2022/04/18 02:34:42;;;;;;;2.53;1.53;;;18.70;43.60;;;;;;5063677;28;20224;-58
2022/04/18 02:37:07;;;;;;;1.50;1.40;;;18.70;43.60;;;;;;5060575;28;20418;-58
2022/04/18 02:39:33;;;;;;;1.43;1.33;;;18.70;43.60;;;;;;5061873;28;20312;-58
2022/04/18 02:41:58;;;;;;;1.57;1.47;;;18.70;43.60;;;;;;5059469;28;20257;-58
2022/04/18 02:44:24;;;;;;;1.53;1.43;;;18.70;43.60;;;;;;5060101;28;20229;-58
2022/04/18 02:46:50;;;;;;;1.70;1.60;;;18.70;43.60;;;;;;5058843;28;20222;-58
2022/04/18 02:49:15;;;;;;;1.30;1.20;;;18.70;43.60;;;;;;5066933;28;20234;-59
2022/04/18 02:51:41;;;;;;;1.53;1.43;;;18.70;43.60;;;;;;5060313;28;20222;-58
2022/04/18 02:54:07;;;;;;;1.57;1.47;;;18.70;43.60;;;;;;5059396;28;20644;-58
2022/04/18 02:56:32;;;;;;;1.57;1.47;;;18.70;43.60;;;;;;5049017;28;20687;-58
2022/04/18 02:58:58;;;;;;;1.50;1.40;;;18.70;43.60;;;;;;5059779;28;20973;-58
2022/04/18 03:01:24;;;;;;;1.60;1.50;;;18.70;43.60;;;;;;5057140;28;20233;-57
2022/04/18 03:03:49;;;;;;;1.50;1.40;;;18.70;43.60;;;;;;5060851;28;20218;-59
2022/04/18 03:06:15;;;;;;;1.80;1.70;;;18.70;43.60;;;;;;5060838;28;20267;-58
2022/04/18 03:08:40;;;;;;;1.63;1.53;;;18.70;43.60;;;;;;5039328;28;20240;-58
2022/04/18 03:11:07;;;;;;;1.57;1.47;;;18.70;43.60;;;;;;5065919;28;20225;-58
2022/04/18 03:13:34;;;;;;;1.60;1.50;;;18.70;43.60;;;;;;5059749;28;20245;-59
2022/04/18 03:16:01;;;;;;;1.43;1.33;;;18.70;43.60;;;;;;5057342;28;20438;-58
2022/04/18 03:18:27;;;;;;;1.47;1.37;;;18.70;43.60;;;;;;5060056;28;20450;-58
2022/04/18 03:20:53;;;;;;;1.70;1.60;;;18.70;43.60;;;;;;5059459;28;20467;-58
2022/04/18 03:23:19;;;;;;;1.67;1.57;;;18.70;43.60;;;;;;5063025;28;20466;-58
2022/04/18 03:25:45;;;;;;;1.60;1.50;;;18.70;43.60;;;;;;5060629;28;20427;-57
2022/04/18 03:28:10;;;;;;;1.53;1.43;;;18.70;43.60;;;;;;5061266;28;20518;-58
2022/04/18 03:30:36;;;;;;;1.57;1.47;;;18.70;43.60;;;;;;5061311;28;20578;-58
2022/04/18 03:33:02;;;;;;;1.50;1.40;;;18.70;43.60;;;;;;5061488;28;20214;-58
2022/04/18 03:35:28;;;;;;;1.57;1.47;;;18.70;43.60;;;;;;5061055;28;20227;-58
2022/04/18 03:40:37;;;;;;;1.90;1.80;;;18.70;43.60;;;;;;5060188;28;20750;-58
2022/04/18 03:43:04;;;;;;;1.50;1.40;;;18.70;43.60;;;;;;5059016;28;20440;-58
2022/04/18 03:45:29;;;;;;;1.60;1.50;;;18.70;43.60;;;;;;5061733;28;20236;-57
2022/04/18 03:47:55;;;;;;;1.60;1.50;;;18.70;43.60;;;;;;5063715;28;20857;-58
2022/04/18 03:50:20;;;;;;;1.50;1.40;;;18.70;43.60;;;;;;5061549;28;20226;-58
2022/04/18 03:52:46;;;;;;;1.50;1.40;;;18.70;43.60;;;;;;5057956;28;20218;-58
2022/04/18 03:55:11;;;;;;;1.50;1.40;;;18.70;43.60;;;;;;5063704;28;20224;-58
2022/04/18 03:57:37;;;;;;;1.60;1.50;;;18.70;43.60;;;;;;5057697;28;20229;-58
2022/04/18 04:00:04;;;;;;;1.70;1.60;;;18.70;43.60;;;;;;5045541;28;20229;-58
2022/04/18 04:02:30;;;;;;;1.40;1.30;;;18.70;43.60;;;;;;5059131;28;20684;-58
2022/04/18 04:04:56;;;;;;;1.60;1.50;;;18.70;43.60;;;;;;5065090;28;20518;-58
2022/04/18 04:07:21;;;;;;;1.60;1.50;;;18.70;43.60;;;;;;5063299;28;20229;-58
2022/04/18 04:09:47;;;;;;;1.80;1.70;;;18.70;43.60;;;;;;5060946;28;20646;-58
2022/04/18 04:12:13;;;;;;;1.60;1.50;;;18.70;43.60;;;;;;5064197;28;20267;-58
2022/04/18 04:14:38;;;;;;;1.63;1.53;;;18.70;43.60;;;;;;5055752;28;20226;-58
2022/04/18 04:17:04;;;;;;;1.60;1.50;;;18.70;43.60;;;;;;5059156;28;20224;-58
2022/04/18 04:19:30;;;;;;;1.40;1.30;;;18.70;43.60;;;;;;5059213;28;20242;-58
2022/04/18 04:21:55;;;;;;;1.60;1.50;;;18.70;43.60;;;;;;5051696;28;20224;-58
2022/04/18 04:24:21;;;;;;;1.90;1.80;;;18.70;43.60;;;;;;5063556;28;20230;-58
2022/04/18 04:26:48;;;;;;;1.40;1.30;;;18.70;43.60;;;;;;5064300;28;20745;-58
2022/04/18 04:29:15;;;;;;;1.57;1.47;;;18.70;43.60;;;;;;5053522;28;20222;-57
2022/04/18 04:31:40;;;;;;;1.57;1.47;;;18.70;43.60;;;;;;5056633;28;20455;-58
2022/04/18 04:34:06;;;;;;;1.50;1.40;;;18.70;43.60;;;;;;5064433;28;20814;-58
2022/04/18 04:36:32;;;;;;;1.50;1.40;;;18.70;43.60;;;;;;5060691;28;20667;-58
2022/04/18 04:38:57;;;;;;;1.80;1.70;;;18.70;43.60;;;;;;5063149;28;20282;-58
2022/04/18 04:41:23;;;;;;;1.70;1.60;;;18.70;43.60;;;;;;5062830;28;20309;-58
2022/04/18 04:43:48;;;;;;;1.70;1.60;;;18.70;43.60;;;;;;5058035;28;20230;-58
2022/04/18 04:46:14;;;;;;;1.50;1.40;;;18.70;43.60;;;;;;5062257;28;20222;-58
2022/04/18 04:48:40;;;;;;;1.70;1.60;;;18.70;43.60;;;;;;5064763;28;20234;-58
2022/04/18 04:51:05;;;;;;;1.57;1.47;;;18.70;43.60;;;;;;5060487;28;20252;-58
2022/04/18 04:53:31;;;;;;;1.70;1.60;;;18.70;43.60;;;;;;5058946;28;20667;-58
2022/04/18 04:55:56;;;;;;;1.57;1.47;;;18.70;43.60;;;;;;5064304;28;20214;-58
2022/04/18 04:58:22;;;;;;;1.50;1.40;;;18.70;43.60;;;;;;5058825;28;20218;-58
2022/04/18 05:00:48;;;;;;;1.57;1.47;;;18.70;43.60;;;;;;5063430;28;20798;-58
2022/04/18 05:03:13;;;;;;;1.73;1.63;;;18.70;43.60;;;;;;5063928;28;20238;-58
2022/04/18 05:05:40;;;;;;;1.63;1.53;;;18.70;43.60;;;;;;5065959;28;20631;-58
2022/04/18 05:08:05;;;;;;;1.40;1.30;;;18.70;43.50;;;;;;5062586;28;20320;-58
2022/04/18 05:10:31;;;;;;;1.60;1.50;;;18.70;43.60;;;;;;5064280;28;20538;-58
2022/04/18 05:12:56;;;;;;;1.40;1.30;;;18.70;43.60;;;;;;5044829;28;20255;-58
2022/04/18 05:15:22;;;;;;;1.50;1.40;;;18.70;43.60;;;;;;5059849;28;20735;-58
2022/04/18 05:17:48;;;;;;;1.33;1.23;;;18.70;43.60;;;;;;5067078;28;20212;-58
2022/04/18 05:20:13;;;;;;;1.47;1.37;;;18.70;43.60;;;;;;5060185;28;20234;-58
2022/04/18 05:22:39;;;;;;;1.60;1.50;;;18.70;43.60;;;;;;5060683;28;20635;-58
2022/04/18 05:25:05;;;;;;;1.60;1.50;;;18.70;43.60;;;;;;5066380;28;20297;-57
2022/04/18 05:27:30;;;;;;;1.50;1.40;;;18.70;43.50;;;;;;5066464;28;20624;-58
2022/04/18 05:29:56;;;;;;;1.87;1.77;;;18.70;43.60;;;;;;5063198;28;20245;-58
2022/04/18 05:32:22;;;;;;;2.00;1.90;;;18.70;43.60;;;;;;5063806;28;20241;-58
2022/04/18 05:34:47;;;;;;;1.83;1.73;;;18.70;43.60;;;;;;5060731;28;20210;-58
2022/04/18 05:37:13;;;;;;;1.50;1.40;;;18.70;43.60;;;;;;5055617;28;20241;-58
2022/04/18 05:39:39;;;;;;;1.50;1.40;;;18.70;43.60;;;;;;5061341;28;20307;-58
2022/04/18 05:42:06;;;;;;;1.53;1.43;;;18.70;43.60;;;;;;5063011;28;20246;-58
2022/04/18 05:44:32;;;;;;;1.50;1.40;;;18.80;43.60;;;;;;5060528;28;20578;-57
2022/04/18 05:46:58;;;;;;;1.50;1.40;;;18.80;43.60;;;;;;5062633;28;20476;-58
2022/04/18 05:49:23;;;;;;;1.30;1.20;;;18.80;43.60;;;;;;5060865;28;20958;-58
2022/04/18 05:51:49;;;;;;;1.43;1.33;;;18.80;43.60;;;;;;5058475;28;20321;-58
2022/04/18 05:54:15;;;;;;;1.40;1.30;;;18.80;43.60;;;;;;5057907;28;20221;-58
2022/04/18 05:56:41;;;;;;;1.40;1.30;;;18.80;43.60;;;;;;5060589;28;20215;-58
2022/04/18 05:59:06;;;;;;;1.60;1.50;;;18.80;43.60;;;;;;5057730;28;20366;-58
2022/04/18 06:01:32;;;;;;;1.50;1.40;;;18.80;43.60;;;;;;5064716;28;20582;-58
2022/04/18 06:03:58;;;;;;;1.50;1.40;;;18.80;43.50;;;;;;5064390;28;20229;-58
2022/04/18 06:06:25;;;;;;;1.60;1.50;;;18.80;44.30;;;;;;5060771;28;20229;-58
2022/04/18 06:08:51;;;;;;;1.63;1.53;;;18.80;43.60;;;;;;5061173;28;20246;-58
2022/04/18 06:11:16;;;;;;;1.53;1.43;;;18.80;43.50;;;;;;5060391;28;20458;-58
2022/04/18 06:13:42;;;;;;;1.47;1.37;;;18.80;43.40;;;;;;5060749;28;20220;-58
2022/04/18 06:16:08;;;;;;;1.40;1.30;;;18.80;43.40;;;;;;5062283;28;20241;-58
2022/04/18 06:18:34;;;;;;;1.70;1.60;;;18.80;43.40;;;;;;5061975;28;20555;-58
2022/04/18 06:20:59;;;;;;;1.70;1.60;;;18.80;43.50;;;;;;5058307;28;20238;-57
2022/04/18 06:23:25;;;;;;;1.30;1.20;;;18.80;43.40;;;;;;5060606;28;20231;-58
2022/04/18 06:25:50;;;;;;;1.50;1.40;;;18.80;43.40;;;;;;5063145;28;20675;-59
2022/04/18 06:28:18;;;;;;;1.50;1.40;;;18.80;43.40;;;;;;5056011;28;20584;-58
2022/04/18 06:30:44;;;;;;;1.60;1.50;;;18.80;43.40;;;;;;5060454;28;20228;-58
2022/04/18 06:33:13;;;;;;;1.57;1.47;;;18.80;43.30;;;;;;5062378;28;20433;-58
2022/04/18 06:35:41;;;;;;;1.47;1.37;;;18.80;44.20;;;;;;5065283;28;20222;-57
2022/04/18 06:38:07;;;;;;;1.60;1.50;;;18.80;43.30;;;;;;5063106;28;20531;-58
2022/04/18 06:40:33;;;;;;;1.60;1.50;;;18.80;43.50;;;;;;5064533;28;20559;-58
2022/04/18 06:42:58;;;;;;;1.33;1.23;;;18.80;43.30;;;;;;5062600;28;20742;-58
2022/04/18 06:45:24;;;;;;;1.40;1.30;;;18.80;43.30;;;;;;5058345;28;20232;-58
2022/04/18 06:47:50;;;;;;;1.30;1.20;;;18.80;43.30;;;;;;5059912;28;20217;-58
2022/04/18 06:50:16;;;;;;;1.50;1.40;;;18.90;43.30;;;;;;5062301;28;20225;-58
2022/04/18 06:52:50;;;;;;;1.30;1.20;;;18.80;43.20;;;;;;5056325;28;20444;-57
2022/04/18 06:55:16;;;;;;;1.40;1.30;;;18.80;43.30;;;;;;5059683;28;20223;-58
2022/04/18 06:57:42;;;;;;;1.40;1.30;;;18.80;43.20;;;;;;5063113;28;20409;-58
2022/04/18 07:00:08;;;;;;;1.40;1.30;;;18.80;43.20;;;;;;5059619;28;20474;-57
2022/04/18 07:02:34;;;;;;;1.60;1.50;;;18.80;43.20;;;;;;5063241;28;20230;-57
2022/04/18 07:05:00;;;;;;;1.57;1.47;;;18.80;43.30;;;;;;5059178;28;20777;-58
2022/04/18 07:07:25;;;;;;;1.40;1.30;;;18.90;43.30;;;;;;5058426;28;20607;-58
2022/04/18 07:09:51;;;;;;;1.70;1.60;;;18.90;43.30;;;;;;5060253;28;20463;-57
2022/04/18 07:12:22;;;;;;;1.30;1.20;;;18.90;43.30;;;;;;5054908;28;20305;-58
2022/04/18 07:14:48;;;;;;;1.60;1.50;;;18.90;43.30;;;;;;5056717;28;20225;-58
2022/04/18 07:17:13;;;;;;;1.33;1.23;;;18.90;43.30;;;;;;5063851;28;20424;-58
2022/04/18 07:19:39;;;;;;;1.53;1.43;;;18.90;43.30;;;;;;5060723;28;20448;-58
2022/04/18 07:22:04;;;;;;;1.60;1.50;;;18.90;43.20;;;;;;5057092;28;20213;-58
2022/04/18 07:24:30;;;;;;;1.60;1.50;;;18.90;43.20;;;;;;5060947;28;20263;-58
2022/04/18 07:27:00;;;;;;;1.57;1.47;;;18.90;43.20;;;;;;5059781;28;20294;-58
2022/04/18 07:29:26;;;;;;;1.70;1.60;;;18.90;43.20;;;;;;5053447;28;20222;-58
2022/04/18 07:31:52;;;;;;;1.63;1.53;;;18.90;43.20;;;;;;5062927;28;20530;-58
2022/04/18 07:34:18;;;;;;;1.50;1.40;;;18.80;43.20;;;;;;5056355;28;20881;-58
2022/04/18 07:36:43;;;;;;;1.80;1.70;;;18.90;43.20;;;;;;5058561;28;20746;-58
2022/04/18 07:39:09;;;;;;;1.80;1.70;;;18.90;43.20;;;;;;5059461;28;22729;-58
2022/04/18 07:41:34;;;;;;;1.60;1.50;;;18.90;43.20;;;;;;5062943;28;20732;-57
2022/04/18 07:44:01;;;;;;;1.70;1.60;;;18.90;43.10;;;;;;5053823;28;20678;-57
2022/04/18 07:46:27;;;;;;;1.43;1.33;;;18.90;43.10;;;;;;5059356;28;20226;-59
2022/04/18 07:48:53;;;;;;;1.50;1.40;;;18.90;43.10;;;;;;5059675;28;20417;-58
2022/04/18 07:51:32;;;;;;;1.70;1.60;;;18.80;43.00;;;;;;5060074;28;20241;-58
2022/04/18 07:53:58;;;;;;;1.50;1.40;;;18.90;43.20;;;;;;5060836;28;20217;-58
2022/04/18 07:56:24;;;;;;;1.40;1.30;;;18.90;43.10;;;;;;5062649;28;20478;-58
2022/04/18 07:58:50;;;;;;;1.50;1.40;;;18.90;43.20;;;;;;5057134;28;20446;-58
2022/04/18 08:01:17;;;;;;;1.60;1.50;;;18.90;43.10;;;;;;5057257;28;20513;-58
2022/04/18 08:03:42;;;;;;;1.70;1.60;;;18.90;43.10;;;;;;5060760;28;20448;-58
2022/04/18 08:06:08;;;;;;;1.50;1.40;;;18.90;43.10;;;;;;5055760;28;20509;-57
2022/04/18 08:08:34;;;;;;;1.40;1.30;;;18.90;43.10;;;;;;5063011;28;20229;-58
2022/04/18 08:11:00;;;;;;;2.00;1.57;;;18.90;43.10;;;;;;5061422;28;20729;-58
2022/04/18 08:13:26;;;;;;;1.30;1.20;;;18.90;43.10;;;;;;5057871;28;20451;-58
2022/04/18 08:15:52;;;;;;;1.53;1.43;;;18.90;43.10;;;;;;5063837;28;20229;-58
2022/04/18 08:18:18;;;;;;;1.40;1.30;;;18.90;43.10;;;;;;5065092;28;20414;-57
2022/04/18 08:20:43;;;;;;;1.50;1.40;;;18.90;43.90;;;;;;5043748;28;20875;-58
2022/04/18 08:23:09;;;;;;;1.43;1.33;;;18.90;43.10;;;;;;5062799;28;20306;-58
2022/04/18 08:25:35;;;;;;;1.60;1.50;;;18.90;43.90;;;;;;5062262;28;20233;-58
2022/04/18 08:28:00;;;;;;;1.70;1.60;;;18.90;43.10;;;;;;5057755;28;20226;-57
2022/04/18 08:30:27;;;;;;;1.63;1.53;;;18.90;43.10;;;;;;5063311;28;20227;-58
2022/04/18 08:32:53;;;;;;;1.50;1.40;;;18.90;43.90;;;;;;5063341;28;20224;-58
2022/04/18 08:35:19;;;;;;;1.50;1.40;;;18.90;43.10;;;;;;5064368;28;20421;-58
2022/04/18 08:37:45;;;;;;;1.47;1.37;;;18.90;43.00;;;;;;5061965;28;20425;-58
2022/04/18 08:40:11;;;;;;;1.70;1.60;;;18.90;43.10;;;;;;5063169;28;20372;-58
2022/04/18 08:42:38;;;;;;;1.50;1.40;;;18.90;43.00;;;;;;5062206;28;20538;-57
2022/04/18 08:45:07;;;;;;;1.63;1.53;;;18.90;43.00;;;;;;5057556;28;20228;-58
2022/04/18 08:53:03;;;;;;;1.80;1.70;;;18.90;43.10;;;;;;5064329;28;20788;-58
2022/04/18 08:55:29;;;;;;;1.40;1.30;;;18.90;43.10;;;;;;5066292;28;20417;-58
2022/04/18 08:57:55;;;;;;;1.60;1.50;;;18.90;43.10;;;;;;5061315;28;20421;-58
2022/04/18 09:00:21;;;;;;;1.73;1.63;;;18.90;43.10;;;;;;5062812;28;20467;-58
2022/04/18 09:02:46;;;;;;;1.60;1.50;;;18.90;43.10;;;;;;5062758;28;20231;-57
2022/04/18 09:05:13;;;;;;;1.50;1.40;;;18.90;43.10;;;;;;5060724;28;20256;-58
2022/04/18 09:07:43;;;;;;;1.50;1.40;;;18.90;43.00;;;;;;5065794;28;20237;-58
2022/04/18 09:10:11;;;;;;;1.77;1.67;;;18.90;43.10;;;;;;5060097;28;20461;-58
2022/04/18 09:12:43;;;;;;;1.73;1.63;;;18.90;43.10;;;;;;5057921;28;20492;-58
2022/04/18 09:15:09;;;;;;;1.40;1.30;;;18.90;43.10;;;;;;5064440;28;20549;-58
2022/04/18 09:17:36;;;;;;;1.70;1.60;;;18.90;43.10;;;;;;5060958;28;20509;-58
2022/04/18 09:20:10;;;;;;;1.37;1.27;;;18.90;43.10;;;;;;5060359;28;20683;-58
2022/04/18 09:22:49;;;;;;;1.70;1.60;;;18.90;43.10;;;;;;5063517;28;20417;-58
2022/04/18 09:25:19;;;;;;;1.50;1.40;;;18.90;43.10;;;;;;5060051;28;20422;-58
2022/04/18 09:27:58;;;;;;;1.53;1.43;;;18.90;43.10;;;;;;5056429;28;20931;-58
2022/04/18 09:30:30;;;;;;;1.60;1.50;;;18.90;43.10;;;;;;5045719;28;20824;-58
2022/04/18 09:33:07;;;;;;;1.70;1.60;;;18.90;43.10;;;;;;5067254;28;20432;-58
2022/04/18 09:35:33;;;;;;;1.97;1.87;;;18.90;43.10;;;;;;5057870;28;20435;-58
2022/04/18 09:38:11;;;;;;;2.00;1.90;;;18.90;43.10;;;;;;5063445;28;20440;-58
2022/04/18 09:40:37;;;;;;;1.70;1.60;;;18.90;43.10;;;;;;5063838;28;20427;-58
2022/04/18 09:43:03;;;;;;;1.57;1.47;;;18.90;43.10;;;;;;5057875;28;20421;-58
2022/04/18 09:45:29;;;;;;;1.70;1.60;;;18.90;43.10;;;;;;5062889;28;20528;-58
2022/04/18 09:47:56;;;;;;;2.30;2.20;;;18.90;43.20;;;;;;5057507;28;20508;-58
2022/04/18 09:53:22;;;;;;;1.70;1.60;;;18.90;43.20;;;;;;5062886;28;20981;-58
2022/04/18 09:55:50;;;;;;;1.50;1.40;;;18.90;43.20;;;;;;5061810;28;20833;-58
2022/04/18 09:58:15;;;;;;;1.67;1.57;;;18.90;43.20;;;;;;5056908;28;20415;-58
2022/04/18 10:00:41;;;;;;;1.80;1.70;;;18.90;43.20;;;;;;5063901;28;20491;-58
2022/04/18 10:03:08;;;;;;;1.50;1.40;;;18.90;43.20;;;;;;5059751;28;20256;-58
2022/04/18 10:05:34;;;;;;;2.10;1.73;;;18.90;43.20;;;;;;5059042;28;20448;-58
2022/04/18 10:08:04;;;;;;;1.77;1.67;;;18.90;43.20;;;;;;5065838;28;20462;-57
2022/04/18 10:10:34;;;;;;;1.53;1.43;;;18.80;43.20;;;;;;5046912;28;20414;-58
2022/04/18 10:13:00;;;;;;;1.60;1.50;;;18.90;43.20;;;;;;5060192;28;20432;-58
2022/04/18 10:15:30;;;;;;;1.90;1.80;;;18.90;43.20;;;;;;5063759;28;20451;-58
2022/04/18 10:17:56;;;;;;;1.70;1.60;;;18.90;43.20;;;;;;5054943;28;20428;-58
2022/04/18 10:20:52;;;;;;;1.67;1.57;;;18.90;43.20;;;;;;5056380;28;20477;-58
2022/04/18 10:23:39;;;;;;;1.70;1.60;;;18.90;43.30;;;;;;5060799;28;20458;-58
2022/04/18 10:26:34;;;;;;;1.77;1.67;;;18.90;43.30;;;;;;5058966;28;20505;-58
2022/04/18 10:29:18;;;;;;;1.70;1.60;;;18.90;43.30;;;;;;5062091;28;20453;-58
2022/04/18 10:31:45;;;;;;;1.80;1.70;;;18.90;43.30;;;;;;5059897;28;20442;-58
2022/04/18 10:34:13;;;;;;;1.87;1.77;;;18.90;43.30;;;;;;5060461;28;20802;-58
2022/04/18 10:36:45;;;;;;;1.90;1.80;;;18.90;43.30;;;;;;5061462;28;20974;-58
2022/04/18 10:39:11;;;;;;;1.70;1.60;;;18.90;43.40;;;;;;5065543;28;20452;-58
2022/04/18 10:41:45;;;;;;;1.90;1.80;;;18.90;43.40;;;;;;5060386;28;20446;-58
2022/04/18 10:44:34;;;;;;;2.03;1.93;;;18.90;43.30;;;;;;5059537;28;20453;-58
2022/04/18 10:47:03;;;;;;;1.67;1.57;;;18.90;43.40;;;;;;5050383;28;20460;-58
2022/04/18 10:49:33;;;;;;;1.40;1.30;;;18.90;43.50;;;;;;5058781;28;20543;-58
2022/04/18 10:52:08;;;;;;;2.10;2.00;;;18.90;43.40;;;;;;5042938;28;20963;-58
2022/04/18 10:54:34;;;;;;;1.90;1.80;;;18.90;43.30;;;;;;5059113;28;20450;-58
2022/04/18 10:57:06;;;;;;;1.90;1.80;;;18.90;43.40;;;;;;5057139;28;20433;-58
2022/04/18 10:59:38;;;;;;;1.77;1.67;;;18.80;43.40;;;;;;5061556;28;20432;-57
2022/04/18 11:02:06;;;;;;;1.70;1.60;;;18.80;43.40;;;;;;5058432;28;20425;-58
2022/04/18 11:04:44;;;;;;;1.80;1.70;;;18.80;43.30;;;;;;5057284;28;20461;-58
2022/04/18 11:07:11;;;;;;;1.70;1.60;;;18.90;43.50;;;;;;5065270;28;20418;-58
2022/04/18 11:09:45;;;;;;;1.77;1.67;;;18.80;43.40;;;;;;5059035;28;20417;-58
2022/04/18 11:12:12;;;;;;;1.53;1.43;;;18.80;43.30;;;;;;5058428;28;20799;-58
2022/04/18 11:14:37;;;;;;;1.73;1.63;;;18.90;43.30;;;;;;5058942;28;20425;-58
2022/04/18 11:17:05;;;;;;;1.70;1.60;;;18.80;43.40;;;;;;5059312;28;20492;-58
2022/04/18 11:19:39;;;;;;;1.80;1.70;;;18.80;43.30;;;;;;5055953;28;20257;-57
2022/04/18 11:22:06;;;;;;;1.73;1.63;;;18.80;43.30;;;;;;5061150;28;20438;-58
2022/04/18 11:24:40;;;;;;;1.57;1.47;;;18.80;43.30;;;;;;5051287;28;20407;-58
2022/04/18 11:27:12;;;;;;;1.57;1.47;;;18.80;43.40;;;;;;5054084;28;20898;-58
2022/04/18 11:29:39;;;;;;;1.60;1.50;;;18.80;43.40;;;;;;5059988;28;20818;-58
2022/04/18 11:32:06;;;;;;;1.90;1.80;;;18.80;43.40;;;;;;5057122;28;20434;-58
2022/04/18 11:34:32;;;;;;;1.90;1.80;;;18.80;43.50;;;;;;5055077;28;20537;-58
2022/04/18 11:37:00;;;;;;;1.90;1.80;;;18.80;43.40;;;;;;5059031;28;20413;-58
2022/04/18 11:39:50;;;;;;;2.10;2.00;;;18.80;43.40;;;;;;5055272;28;20462;-58
2022/04/18 11:42:33;;;;;;;1.80;1.70;;;18.80;43.50;;;;;;5060898;28;20429;-58
2022/04/18 11:45:04;;;;;;;1.93;1.83;;;18.80;43.50;;;;;;5061985;28;20462;-58
2022/04/18 11:47:44;;;;;;;1.90;1.80;;;18.80;43.60;;;;;;5058700;28;20542;-58
2022/04/18 11:50:10;;;;;;;1.97;1.87;;;18.80;43.60;;;;;;5056520;28;20422;-58
2022/04/18 11:52:40;;;;;;;1.70;1.60;;;18.80;43.50;;;;;;5060970;28;20493;-58
2022/04/18 11:55:11;;;;;;;2.00;1.90;;;18.80;43.60;;;;;;5054646;28;20447;-58
2022/04/18 11:57:38;;;;;;;1.77;1.67;;;18.80;43.60;;;;;;5056188;28;20471;-58
2022/04/18 12:00:12;;;;;;;1.67;1.57;;;18.80;43.60;;;;;;5061493;28;20468;-57
2022/04/18 12:08:12;;;;;;;1.70;1.60;;;18.80;43.60;;;;;;5061089;28;20676;-58
2022/04/18 12:10:41;;;;;;;2.00;1.90;;;18.80;43.60;;;;;;5057534;28;20504;-58
2022/04/18 12:13:14;;;;;;;1.80;1.70;;;18.80;44.50;;;;;;5065315;28;20409;-58
2022/04/18 12:15:41;;;;;;;1.70;1.60;;;18.80;43.60;;;;;;5063346;28;20440;-58
2022/04/18 12:18:15;;;;;;;2.13;2.03;;;18.80;43.60;;;;;;5052049;28;20465;-58
2022/04/18 12:20:46;;;;;;;2.10;2.00;;;18.80;43.60;;;;;;5061745;28;20436;-58
2022/04/18 12:23:23;;;;;;;1.90;1.80;;;18.80;43.60;;;;;;5064064;28;20878;-58
2022/04/18 12:25:51;;;;;;;1.87;1.77;;;18.80;43.60;;;;;;5061584;28;20425;-58
2022/04/18 12:28:20;;;;;;;1.70;1.60;;;18.80;43.60;;;;;;5059989;28;20803;-58
2022/04/18 12:30:46;;;;;;;1.83;1.73;;;18.80;43.60;;;;;;5058810;28;20421;-58
2022/04/18 12:33:19;;;;;;;1.50;1.40;;;18.80;43.60;;;;;;5054431;28;20436;-59
2022/04/18 12:35:48;;;;;;;1.87;1.77;;;18.80;43.60;;;;;;5060748;28;20614;-58
2022/04/18 12:38:15;;;;;;;2.03;1.93;;;18.80;43.60;;;;;;5057075;28;20491;-58
2022/04/18 12:40:45;;;;;;;1.70;1.60;;;18.80;43.60;;;;;;5058248;28;20465;-58
2022/04/18 12:43:11;;;;;;;1.80;1.70;;;18.80;43.60;;;;;;5061022;28;20498;-58
2022/04/18 12:45:50;;;;;;;1.73;1.63;;;18.80;43.60;;;;;;5061816;28;21033;-58
2022/04/18 12:48:29;;;;;;;1.80;1.70;;;18.80;43.60;;;;;;5057203;28;20236;-58
2022/04/18 12:50:57;;;;;;;2.07;1.97;;;18.80;43.60;;;;;;5059001;28;20454;-58
2022/04/18 12:53:43;;;;;;;1.70;1.60;;;18.80;43.60;;;;;;5059259;28;20422;-58
2022/04/18 12:56:09;;;;;;;1.63;1.53;;;18.80;43.60;;;;;;5059572;28;20430;-58
2022/04/18 12:58:39;;;;;;;1.90;1.80;;;18.80;43.60;;;;;;5063278;28;20956;-58
2022/04/18 13:01:05;;;;;;;1.70;1.60;;;18.80;43.60;;;;;;5060909;28;20241;-58
2022/04/18 13:03:40;;;;;;;1.80;1.70;;;18.80;43.60;;;;;;5061634;28;20500;-58
2022/04/18 13:06:06;;;;;;;1.87;1.77;;;18.80;43.60;;;;;;5059375;28;20409;-58
2022/04/18 13:08:37;;;;;;;1.70;1.60;;;18.80;43.60;;;;;;5069020;28;20458;-58
2022/04/18 13:11:03;;;;;;;1.90;1.80;;;18.80;43.60;;;;;;5060359;28;20274;-58
2022/04/18 13:13:28;;;;;;;1.90;1.80;;;18.80;43.60;;;;;;5048830;28;20442;-58